Time;durP1;ratioP1;P1;durP2;ratioP2;P2;SDS_P1;SDS_P2;PMS_P1;PMS_P2;Temp;Humidity;BMP_temperature;BMP_pressure;BME280_temperature;BME280_humidity;BME280_pressure;Samples;Min_cycle;Max_cycle;Signal;HPM_P1;HPM_P2
2023/12/12 00:00:34;;;;;;;158.33;42.87;;;;;;;-141.97;100.00;46254.59;4990984;28;20198;-89
2023/12/12 00:03:00;;;;;;;173.93;47.43;;;;;;;-141.97;100.00;46344.91;4979034;28;20544;-89
2023/12/12 00:05:25;;;;;;;177.63;48.10;;;;;;;-141.97;100.00;46220.03;4976532;28;20204;-90
2023/12/12 00:07:51;;;;;;;173.83;49.40;;;;;;;-141.97;100.00;46736.91;4977218;28;20183;-90
2023/12/12 00:10:16;;;;;;;182.73;51.10;;;;;;;-141.97;100.00;46319.94;4977007;28;20172;-90
2023/12/12 00:12:42;;;;;;;184.00;51.27;;;;;;;-141.97;100.00;46362.22;4977228;28;20171;-89
2023/12/12 00:15:08;;;;;;;219.13;60.47;;;;;;;-141.97;100.00;46266.13;4993993;28;20191;-88
2023/12/12 00:17:34;;;;;;;192.70;55.50;;;;;;;-141.97;100.00;46233.47;4994492;28;20457;-89
2023/12/12 00:20:00;;;;;;;196.93;58.57;;;;;;;-141.97;100.00;46139.34;4976631;28;20172;-90
2023/12/12 00:22:25;;;;;;;181.73;57.10;;;;;;;-141.97;100.00;46681.16;4976591;28;20664;-89
2023/12/12 00:24:51;;;;;;;174.37;57.23;;;;;;;-141.97;100.00;46260.38;4993903;28;20557;-90
2023/12/12 00:27:16;;;;;;;166.37;54.40;;;;;;;-141.97;100.00;46692.69;4993918;28;20171;-88
2023/12/12 00:29:41;;;;;;;169.10;53.90;;;;;;;-141.97;100.00;46250.78;4993606;28;20168;-87
2023/12/12 00:32:07;;;;;;;171.20;53.07;;;;;;;-141.97;100.00;46074.00;4977442;28;20182;-90
2023/12/12 00:34:37;;;;;;;160.73;49.40;;;;;;;-141.97;100.00;46131.66;5013972;28;20171;-87
2023/12/12 00:37:02;;;;;;;148.67;46.63;;;;;;;-141.97;100.00;46168.16;4994823;28;20290;-87
2023/12/12 00:39:28;;;;;;;144.20;45.97;;;;;;;-141.97;100.00;46198.91;5001033;28;20411;-87
2023/12/12 00:41:53;;;;;;;147.70;46.17;;;;;;;-141.97;100.00;46293.03;5006795;28;20258;-87
2023/12/12 00:44:19;;;;;;;165.70;46.60;;;;;;;-141.97;100.00;46031.75;4976574;28;20200;-84
2023/12/12 00:46:44;;;;;;;163.23;44.17;;;;;;;-141.97;100.00;46070.16;4993448;28;20176;-86
2023/12/12 00:49:09;;;;;;;152.03;40.97;;;;;;;-141.97;100.00;46181.59;4976867;28;20281;-89
2023/12/12 00:51:35;;;;;;;142.90;40.53;;;;;;;-141.97;100.00;46170.06;4997272;28;20172;-88
2023/12/12 00:54:00;;;;;;;135.33;43.03;;;;;;;-141.97;100.00;46538.97;4997100;28;20168;-89
2023/12/12 00:56:26;;;;;;;126.27;40.27;;;;;;;-141.97;100.00;46612.00;4979595;28;20694;-89
2023/12/12 00:58:51;;;;;;;126.87;38.70;;;;;;;-141.97;100.00;46054.81;4975907;28;20262;-90
2023/12/12 01:01:17;;;;;;;142.47;41.50;;;;;;;-141.97;100.00;46608.16;4976890;28;20170;-89
2023/12/12 01:03:42;;;;;;;121.40;40.47;;;;;;;-141.97;100.00;46043.28;4976319;28;20229;-89
2023/12/12 01:06:08;;;;;;;125.87;38.90;;;;;;;-141.97;100.00;46319.94;4975955;28;20245;-91
2023/12/12 01:08:33;;;;;;;122.67;40.23;;;;;;;-141.97;100.00;46600.47;4975817;28;20173;-91
2023/12/12 01:10:59;;;;;;;122.27;38.50;;;;;;;-141.97;100.00;46191.22;4975746;28;20171;-89
2023/12/12 01:13:24;;;;;;;116.10;40.10;;;;;;;-141.97;100.00;46152.78;4975750;28;20174;-90
2023/12/12 01:15:50;;;;;;;127.50;40.33;;;;;;;-141.97;100.00;46254.59;4993549;28;20246;-89
2023/12/12 01:18:15;;;;;;;113.37;39.83;;;;;;;-141.97;100.00;46306.50;4976223;28;20176;-89
2023/12/12 01:20:41;;;;;;;129.97;40.30;;;;;;;-141.97;100.00;46540.91;4976924;28;20261;-90
2023/12/12 01:23:06;;;;;;;120.00;40.90;;;;;;;-141.97;100.00;46198.91;4993461;28;20163;-88
2023/12/12 01:25:32;;;;;;;117.67;38.87;;;;;;;-141.97;100.00;46314.16;4975896;28;20225;-90
2023/12/12 01:27:57;;;;;;;123.90;38.67;;;;;;;-141.97;100.00;46108.59;4992804;28;20539;-88
2023/12/12 01:30:22;;;;;;;113.70;38.97;;;;;;;-141.97;100.00;46181.59;4976634;28;20174;-90
2023/12/12 01:32:48;;;;;;;128.63;41.47;;;;;;;-141.97;100.00;46677.31;4995736;28;20168;-90
2023/12/12 01:35:14;;;;;;;113.07;39.43;;;;;;;-141.97;100.00;46097.06;4985041;28;20235;-89
2023/12/12 01:37:40;;;;;;;121.00;41.70;;;;;;;-141.97;100.00;46385.25;5043906;23;20152;-88
2023/12/12 01:40:08;;;;;;;126.90;40.77;;;;;;;-141.97;100.00;46302.66;4961789;29;20439;-88
2023/12/12 01:42:33;;;;;;;120.10;40.93;;;;;;;-141.97;100.00;46177.75;4960542;28;20200;-90
2023/12/12 01:44:58;;;;;;;111.80;40.13;;;;;;;-141.97;100.00;46095.16;4978334;28;20562;-90
2023/12/12 01:47:25;;;;;;;116.60;40.90;;;;;;;-141.97;100.00;46225.78;4995530;28;20168;-88
2023/12/12 01:49:51;;;;;;;120.80;41.87;;;;;;;-141.97;100.00;46341.06;4965397;28;20238;-89
2023/12/12 01:52:16;;;;;;;118.10;40.63;;;;;;;-141.97;100.00;46535.13;4955722;28;20916;-90
2023/12/12 01:54:46;;;;;;;118.90;40.93;;;;;;;-141.97;100.00;46562.03;4973576;28;20175;-88
2023/12/12 01:57:16;;;;;;;112.13;40.63;;;;;;;-141.97;100.00;46481.34;4973896;28;20169;-89
2023/12/12 01:59:44;;;;;;;121.00;43.07;;;;;;;-141.97;100.00;46277.66;4971944;28;20494;-88
2023/12/12 02:02:10;;;;;;;114.57;41.13;;;;;;;-141.97;100.00;46264.22;4972935;28;20419;-89
2023/12/12 02:04:35;;;;;;;120.93;41.67;;;;;;;-141.97;100.00;46692.69;4975637;28;20461;-88
2023/12/12 02:07:04;;;;;;;113.87;40.70;;;;;;;-141.97;100.00;46089.38;4974761;28;20198;-89
2023/12/12 02:09:30;;;;;;;114.10;40.50;;;;;;;-141.97;100.00;46143.19;4959483;28;20183;-90
2023/12/12 02:11:55;;;;;;;111.97;40.80;;;;;;;-141.97;100.00;46177.75;4958088;28;20593;-88
2023/12/12 02:14:21;;;;;;;118.43;40.27;;;;;;;-141.97;100.00;46289.19;4976926;28;20411;-88
2023/12/12 02:16:46;;;;;;;123.47;45.17;;;;;;;-141.97;100.00;46517.84;4995390;28;20186;-89
2023/12/12 02:19:12;;;;;;;120.27;41.20;;;;;;;-141.97;100.00;46131.66;4987575;28;20203;-88
2023/12/12 02:21:37;;;;;;;118.93;42.27;;;;;;;-141.97;100.00;46208.50;4956127;28;20196;-89
2023/12/12 02:24:03;;;;;;;101.70;39.00;;;;;;;-141.97;100.00;46554.34;4973149;28;20712;-90
2023/12/12 02:26:29;;;;;;;114.93;40.77;;;;;;;-141.97;100.00;46239.25;4956766;28;20267;-90
2023/12/12 02:28:55;;;;;;;114.10;40.30;;;;;;;-141.97;100.00;46206.56;4973470;28;20691;-86
2023/12/12 02:31:20;;;;;;;107.67;39.23;;;;;;;-141.97;100.00;46277.66;4964107;28;20180;-85
2023/12/12 02:33:46;;;;;;;116.20;40.90;;;;;;;-141.97;100.00;46289.19;4953496;29;20479;-85
2023/12/12 02:36:11;;;;;;;113.07;40.17;;;;;;;-141.97;100.00;46231.56;4955059;29;20243;-86
2023/12/12 02:38:37;;;;;;;110.47;40.13;;;;;;;-141.97;100.00;46099.00;4953788;29;20652;-86
2023/12/12 02:41:03;;;;;;;108.43;40.23;;;;;;;-141.97;100.00;46106.66;4953956;29;20256;-87
2023/12/12 02:43:29;;;;;;;106.97;39.97;;;;;;;-141.97;100.00;46506.31;4935881;29;20360;-87
2023/12/12 02:45:54;;;;;;;107.53;38.77;;;;;;;-141.97;100.00;46266.13;4952686;29;20473;-85
2023/12/12 02:48:20;;;;;;;109.70;39.37;;;;;;;-141.97;100.00;46200.81;4954239;29;20165;-84
2023/12/12 02:50:45;;;;;;;103.90;36.93;;;;;;;-141.97;100.00;46116.28;4953782;29;20169;-85
2023/12/12 02:53:10;;;;;;;109.27;38.27;;;;;;;-141.97;100.00;46323.78;4951651;29;20169;-85
2023/12/12 02:55:36;;;;;;;148.07;52.07;;;;;;;-141.97;100.00;46748.44;4952368;29;20165;-86
2023/12/12 02:58:01;;;;;;;114.97;42.17;;;;;;;-141.97;100.00;46312.25;4954499;29;20198;-85
2023/12/12 03:00:27;;;;;;;128.87;45.13;;;;;;;-141.97;100.00;46218.09;4943677;29;20180;-86
2023/12/12 03:02:52;;;;;;;130.57;44.50;;;;;;;-141.97;100.00;46170.06;4957407;29;20171;-85
2023/12/12 03:05:17;;;;;;;136.03;45.70;;;;;;;-141.97;100.00;46306.50;4937328;29;20232;-85
2023/12/12 03:07:43;;;;;;;146.57;47.77;;;;;;;-141.97;100.00;46304.56;4952746;29;20264;-86
2023/12/12 03:10:08;;;;;;;152.93;51.67;;;;;;;-141.97;100.00;46296.88;4953806;29;20251;-84
2023/12/12 03:12:34;;;;;;;126.40;41.43;;;;;;;-141.97;100.00;46319.94;4937989;29;20173;-85
2023/12/12 03:14:59;;;;;;;153.10;49.87;;;;;;;-141.97;100.00;46239.25;4935864;29;20177;-86
2023/12/12 03:17:24;;;;;;;131.40;43.77;;;;;;;-141.97;100.00;46300.72;4952322;29;20184;-85
2023/12/12 03:19:50;;;;;;;133.20;44.40;;;;;;;-141.97;100.00;46696.53;4953446;28;20681;-86
2023/12/12 03:22:15;;;;;;;145.40;46.73;;;;;;;-141.97;100.00;46594.69;4939794;29;20572;-85
2023/12/12 03:24:41;;;;;;;150.20;49.00;;;;;;;-141.97;100.00;46527.44;4956435;29;20291;-85
2023/12/12 03:27:08;;;;;;;149.53;48.93;;;;;;;-141.97;100.00;46517.84;4956483;29;20169;-86
2023/12/12 03:29:34;;;;;;;147.37;47.47;;;;;;;-141.97;100.00;46135.50;4956940;29;20241;-85
2023/12/12 03:31:59;;;;;;;146.33;47.03;;;;;;;-141.97;100.00;46258.44;4956289;29;20989;-85
2023/12/12 03:34:25;;;;;;;171.10;51.40;;;;;;;-141.97;100.00;46189.28;4955884;29;20669;-86
2023/12/12 03:36:50;;;;;;;159.93;52.00;;;;;;;-141.97;100.00;46604.31;4956115;29;20247;-86
2023/12/12 03:39:15;;;;;;;147.33;49.40;;;;;;;-141.97;100.00;46523.59;4955300;29;20228;-86
2023/12/12 03:41:43;;;;;;;130.20;44.70;;;;;;;-141.97;100.00;46310.31;4956186;29;20576;-86
2023/12/12 03:44:08;;;;;;;136.57;42.67;;;;;;;-141.97;100.00;46116.28;4955691;29;20256;-85
2023/12/12 03:46:34;;;;;;;122.27;43.13;;;;;;;-141.97;100.00;46318.00;4968961;29;20458;-85
2023/12/12 03:48:59;;;;;;;127.17;42.53;;;;;;;-141.97;100.00;46196.97;4958453;29;20195;-87
2023/12/12 03:51:24;;;;;;;127.90;43.83;;;;;;;-141.97;100.00;46377.56;4956392;29;20180;-86
2023/12/12 03:53:50;;;;;;;121.67;42.10;;;;;;;-141.97;100.00;46220.03;4955991;29;20183;-88
2023/12/12 03:56:15;;;;;;;118.03;42.83;;;;;;;-141.97;100.00;46312.25;4938669;29;20203;-88
2023/12/12 03:58:41;;;;;;;125.07;41.70;;;;;;;-141.97;100.00;46143.19;4955490;29;20605;-87
2023/12/12 04:01:06;;;;;;;114.07;38.43;;;;;;;-141.97;100.00;46335.31;4955798;29;20557;-87
2023/12/12 04:03:32;;;;;;;124.67;43.40;;;;;;;-141.97;100.00;46093.22;4955892;29;20173;-88
2023/12/12 04:06:00;;;;;;;122.63;42.20;;;;;;;-141.97;100.00;46200.81;4957427;29;20196;-88
2023/12/12 04:08:26;;;;;;;123.43;42.37;;;;;;;-141.97;100.00;46252.69;4956845;29;20239;-86
2023/12/12 04:10:52;;;;;;;120.07;42.07;;;;;;;-141.97;100.00;46075.94;4956509;29;20556;-86
2023/12/12 04:13:17;;;;;;;121.17;43.30;;;;;;;-141.97;100.00;46235.41;4957199;29;20167;-89
2023/12/12 04:15:42;;;;;;;137.83;46.13;;;;;;;-141.97;100.00;46216.19;4943785;29;20181;-88
2023/12/12 04:18:08;;;;;;;130.37;44.23;;;;;;;-141.97;100.00;46550.50;4971796;29;20200;-89
2023/12/12 04:20:34;;;;;;;131.80;45.27;;;;;;;-141.97;100.00;46604.31;4956750;29;20259;-89
2023/12/12 04:22:59;;;;;;;134.60;45.03;;;;;;;-141.97;100.00;46515.91;4937409;29;20279;-89
2023/12/12 04:25:25;;;;;;;150.67;47.83;;;;;;;-141.97;100.00;46644.66;4937915;29;20902;-89
2023/12/12 04:27:50;;;;;;;149.83;49.50;;;;;;;-141.97;100.00;46185.44;4953709;29;20227;-90
2023/12/12 04:30:16;;;;;;;144.13;48.87;;;;;;;-141.97;100.00;46056.72;4959817;28;20693;-88
2023/12/12 04:32:42;;;;;;;167.13;57.20;;;;;;;-141.97;100.00;46183.53;4937988;29;20199;-89
2023/12/12 04:35:09;;;;;;;152.70;51.57;;;;;;;-141.97;100.00;46120.13;4939511;29;20420;-87
2023/12/12 04:37:35;;;;;;;142.07;48.33;;;;;;;-141.97;100.00;46606.22;4956768;29;20671;-88
2023/12/12 04:40:01;;;;;;;146.07;50.47;;;;;;;-141.97;100.00;46179.69;4957751;29;20459;-87
2023/12/12 04:42:26;;;;;;;147.30;50.57;;;;;;;-141.97;100.00;46081.69;4940720;29;20187;-87
2023/12/12 04:44:52;;;;;;;136.50;50.97;;;;;;;-141.97;100.00;46725.38;4940712;29;20232;-87
2023/12/12 04:47:17;;;;;;;140.43;48.63;;;;;;;-141.97;100.00;46594.69;4954562;28;20247;-85
2023/12/12 04:49:42;;;;;;;126.37;45.30;;;;;;;-141.97;100.00;46173.91;4954909;29;20173;-86
2023/12/12 04:52:09;;;;;;;134.07;46.97;;;;;;;-141.97;100.00;46252.69;4937349;29;20669;-86
2023/12/12 04:54:34;;;;;;;128.83;44.67;;;;;;;-141.97;100.00;46135.50;4937594;29;20176;-88
2023/12/12 04:57:00;;;;;;;320.47;113.23;;;;;;;-141.97;100.00;46638.91;4937386;29;20436;-90
2023/12/12 04:59:25;;;;;;;231.53;87.00;;;;;;;-141.97;100.00;46312.25;4938089;29;20271;-88
2023/12/12 05:01:51;;;;;;;154.37;55.17;;;;;;;-141.97;100.00;46227.72;4956258;29;20179;-89
2023/12/12 05:04:16;;;;;;;155.43;53.70;;;;;;;-141.97;100.00;46287.28;4938011;29;20228;-90
2023/12/12 05:06:42;;;;;;;149.77;52.93;;;;;;;-141.97;100.00;46227.72;4953609;29;20177;-90
2023/12/12 05:09:08;;;;;;;193.43;70.27;;;;;;;-141.97;100.00;46585.09;4954794;29;20223;-89
2023/12/12 05:11:33;;;;;;;251.53;89.87;;;;;;;-141.97;100.00;46172.00;4937820;29;20185;-90
2023/12/12 05:13:59;;;;;;;374.80;131.70;;;;;;;-141.97;100.00;46158.53;4937285;29;20176;-90
2023/12/12 05:16:24;;;;;;;358.07;129.03;;;;;;;-141.97;100.00;46206.56;4937460;29;20173;-88
2023/12/12 05:18:50;;;;;;;242.27;86.27;;;;;;;-141.97;100.00;46396.78;4956450;29;20169;-90
2023/12/12 05:21:17;;;;;;;262.47;89.27;;;;;;;-141.97;100.00;46104.75;4955977;29;20169;-89
2023/12/12 05:23:42;;;;;;;152.20;52.67;;;;;;;-141.97;100.00;46160.47;4939147;29;20168;-89
2023/12/12 05:26:08;;;;;;;183.80;60.20;;;;;;;-141.97;100.00;46625.44;4957538;29;20466;-88
2023/12/12 05:28:33;;;;;;;201.80;65.77;;;;;;;-141.97;100.00;46500.56;4938018;29;20260;-90
2023/12/12 05:30:59;;;;;;;152.77;52.37;;;;;;;-141.97;100.00;46310.31;4954501;29;20180;-90
2023/12/12 05:33:25;;;;;;;134.83;47.40;;;;;;;-141.97;100.00;46279.59;4961801;29;20199;-86
2023/12/12 05:35:50;;;;;;;139.03;47.50;;;;;;;-141.97;100.00;46227.72;4964255;29;20165;-89
2023/12/12 05:38:16;;;;;;;151.53;52.77;;;;;;;-141.97;100.00;46298.81;4955069;28;20245;-87
2023/12/12 05:40:42;;;;;;;145.57;50.23;;;;;;;-141.97;100.00;46467.88;4940020;29;20169;-88
2023/12/12 05:43:07;;;;;;;137.00;48.17;;;;;;;-141.97;100.00;46304.56;4954292;29;20173;-88
2023/12/12 05:45:33;;;;;;;133.80;47.93;;;;;;;-141.97;100.00;46600.47;4955685;29;20200;-89
2023/12/12 05:47:58;;;;;;;155.30;53.50;;;;;;;-141.97;100.00;46104.75;4966509;29;20171;-88
2023/12/12 05:50:24;;;;;;;140.00;47.13;;;;;;;-141.97;100.00;46047.13;4943532;29;20176;-90
2023/12/12 05:52:50;;;;;;;123.27;43.93;;;;;;;-141.97;100.00;46129.72;4955144;29;20204;-87
2023/12/12 05:55:16;;;;;;;123.43;42.40;;;;;;;-141.97;100.00;46062.47;4937212;29;20210;-88
2023/12/12 05:57:41;;;;;;;125.00;44.30;;;;;;;-141.97;100.00;46220.03;4937580;29;20422;-90
2023/12/12 06:00:07;;;;;;;124.37;44.03;;;;;;;-141.97;100.00;46312.25;4945279;29;20169;-87
2023/12/12 06:02:33;;;;;;;125.17;44.67;;;;;;;-141.97;100.00;46654.28;4947659;29;20191;-88
2023/12/12 06:04:58;;;;;;;141.37;50.67;;;;;;;-141.97;100.00;46252.69;4966869;29;20251;-86
2023/12/12 06:07:24;;;;;;;134.40;49.63;;;;;;;-141.97;100.00;46708.06;4938391;29;20180;-88
2023/12/12 06:09:50;;;;;;;180.67;61.27;;;;;;;-141.97;100.00;46406.41;4954985;29;20179;-86
2023/12/12 06:12:17;;;;;;;197.40;65.97;;;;;;;-141.97;100.00;46642.75;4954909;29;20188;-86
2023/12/12 06:14:42;;;;;;;201.10;68.73;;;;;;;-141.97;100.00;46293.03;4962658;29;20575;-86
2023/12/12 06:17:09;;;;;;;226.33;73.93;;;;;;;-141.97;100.00;46308.41;4975330;28;20472;-86
2023/12/12 06:19:34;;;;;;;211.03;69.27;;;;;;;-141.97;100.00;46289.19;4978068;28;20153;-87
2023/12/12 06:22:01;;;;;;;205.57;75.23;;;;;;;-141.97;100.00;46245.00;5019894;23;20498;-85
2023/12/12 06:24:26;;;;;;;313.33;109.00;;;;;;;-141.97;100.00;46248.84;4988639;28;20207;-86
2023/12/12 06:26:51;;;;;;;275.20;102.80;;;;;;;-141.97;100.00;46298.81;4988519;28;20426;-86
2023/12/12 06:29:17;;;;;;;282.00;107.30;;;;;;;-141.97;100.00;46475.56;5004079;28;20172;-84
2023/12/12 06:31:42;;;;;;;621.43;235.40;;;;;;;-141.97;100.00;46558.19;4993041;28;20172;-86
2023/12/12 06:34:10;;;;;;;341.67;123.17;;;;;;;-141.97;100.00;45981.78;4992132;28;20606;-90
2023/12/12 06:36:36;;;;;;;170.50;61.03;;;;;;;-141.97;100.00;46654.28;4991714;28;20164;-84
2023/12/12 06:39:02;;;;;;;127.37;49.87;;;;;;;-141.97;100.00;46233.47;4993577;28;20920;-84
2023/12/12 06:41:28;;;;;;;142.50;53.17;;;;;;;-141.97;100.00;46373.72;4973497;28;20608;-84
2023/12/12 06:43:53;;;;;;;180.37;62.30;;;;;;;-141.97;100.00;46060.56;4973717;28;20246;-86
2023/12/12 06:46:19;;;;;;;164.17;58.33;;;;;;;-141.97;100.00;46596.63;4990985;28;20206;-84
2023/12/12 06:48:44;;;;;;;198.10;76.83;;;;;;;-141.97;100.00;46452.50;4991483;28;20171;-85
2023/12/12 06:51:09;;;;;;;191.53;81.37;;;;;;;-141.97;100.00;46239.25;4990999;28;20171;-87
2023/12/12 06:53:36;;;;;;;436.33;132.90;;;;;;;-141.97;100.00;46254.59;4974577;28;20183;-86
2023/12/12 06:56:02;;;;;;;475.47;168.37;;;;;;;-141.97;100.00;46131.66;4994983;28;20258;-86
2023/12/12 06:58:28;;;;;;;254.17;88.87;;;;;;;-141.97;100.00;46064.41;4996060;28;21646;-86
2023/12/12 07:00:54;;;;;;;167.87;60.07;;;;;;;-141.97;100.00;46239.25;4978137;28;20469;-84
2023/12/12 07:03:21;;;;;;;151.57;55.43;;;;;;;-141.97;100.00;46504.38;4979115;28;20889;-87
2023/12/12 07:05:50;;;;;;;157.67;54.57;;;;;;;-141.97;100.00;46444.81;4957534;28;20305;-87
2023/12/12 07:08:19;;;;;;;156.07;56.80;;;;;;;-141.97;100.00;46250.78;4975129;28;20425;-85
2023/12/12 07:10:48;;;;;;;174.57;61.40;;;;;;;-141.97;100.00;46202.72;4975163;28;20519;-85
2023/12/12 07:13:13;;;;;;;126.87;43.50;;;;;;;-141.97;100.00;46148.94;4957708;28;20473;-85
2023/12/12 07:15:39;;;;;;;106.63;37.83;;;;;;;-141.97;100.00;46596.63;4975095;28;20494;-84
2023/12/12 07:18:12;;;;;;;116.33;40.73;;;;;;;-141.97;100.00;46296.88;4975878;28;20267;-86
2023/12/12 07:20:38;;;;;;;154.90;52.10;;;;;;;-141.97;100.00;46579.31;4976846;28;20304;-90
2023/12/12 07:23:06;;;;;;;112.67;38.03;;;;;;;-141.97;100.00;46271.91;4964452;28;20474;-88
2023/12/12 07:25:32;;;;;;;132.00;43.50;;;;;;;-141.97;100.00;46273.81;4967508;28;20299;-89
2023/12/12 07:27:57;;;;;;;116.37;37.50;;;;;;;-141.97;100.00;46150.84;4998594;28;20470;-90
2023/12/12 07:30:23;;;;;;;116.00;41.07;;;;;;;-141.97;100.00;46623.53;4981332;28;20191;-90
2023/12/12 07:32:48;;;;;;;114.67;38.77;;;;;;;-141.97;100.00;46708.06;4983873;28;20238;-90
2023/12/12 07:35:14;;;;;;;118.43;39.03;;;;;;;-141.97;100.00;46562.03;4958406;28;20566;-89
2023/12/12 07:37:39;;;;;;;117.87;38.00;;;;;;;-141.97;100.00;45931.84;4975661;28;20610;-89
2023/12/12 07:40:06;;;;;;;111.27;38.57;;;;;;;-141.97;100.00;46254.59;4957924;28;20195;-89
2023/12/12 07:42:31;;;;;;;114.23;38.10;;;;;;;-141.97;100.00;46118.19;4957791;28;20171;-89
2023/12/12 07:44:57;;;;;;;113.67;39.07;;;;;;;-141.97;100.00;46193.13;4956922;28;21005;-88
2023/12/12 07:47:23;;;;;;;109.60;38.97;;;;;;;-141.97;100.00;46125.88;4957609;28;20287;-89
2023/12/12 07:49:48;;;;;;;106.77;35.70;;;;;;;-141.97;100.00;46633.13;4961070;28;20244;-87
2023/12/12 07:52:14;;;;;;;118.27;37.87;;;;;;;-141.97;100.00;46181.59;4968892;28;20671;-88
2023/12/12 07:54:39;;;;;;;127.03;40.03;;;;;;;-141.97;100.00;46296.88;4975599;28;20684;-88
2023/12/12 07:57:05;;;;;;;142.43;44.80;;;;;;;-141.97;100.00;46523.59;4956859;28;20263;-89
2023/12/12 07:59:30;;;;;;;139.83;43.07;;;;;;;-141.97;100.00;46047.13;4967195;28;20179;-88
2023/12/12 08:01:56;;;;;;;140.23;44.33;;;;;;;-141.97;100.00;46627.38;4986177;28;20183;-88
2023/12/12 08:04:22;;;;;;;139.03;43.30;;;;;;;-141.97;100.00;46185.44;4976956;28;20172;-88
2023/12/12 08:06:47;;;;;;;169.50;50.30;;;;;;;-141.97;100.00;46120.13;4959277;28;20188;-88
2023/12/12 08:09:13;;;;;;;132.67;40.77;;;;;;;-141.97;100.00;46560.13;4972782;28;20176;-88
2023/12/12 08:11:39;;;;;;;220.37;61.63;;;;;;;-141.97;100.00;46258.44;4986432;28;20248;-88
2023/12/12 08:14:05;;;;;;;133.53;42.40;;;;;;;-141.97;100.00;46262.28;4984118;28;20637;-88
2023/12/12 08:16:31;;;;;;;167.60;51.20;;;;;;;-141.97;100.00;46550.50;4974279;28;20442;-88
2023/12/12 08:18:56;;;;;;;130.13;43.13;;;;;;;-141.97;100.00;46394.88;4974762;28;20156;-89
2023/12/12 08:21:22;;;;;;;146.83;45.63;;;;;;;-141.97;100.00;46487.09;4974325;28;20228;-89
2023/12/12 08:23:48;;;;;;;162.33;51.47;;;;;;;-141.97;100.00;46271.91;4975391;28;20191;-88
2023/12/12 08:26:14;;;;;;;150.67;48.10;;;;;;;-141.97;100.00;46254.59;4957369;28;20210;-88
2023/12/12 08:28:39;;;;;;;134.40;45.63;;;;;;;-141.97;100.00;46137.41;4957158;28;20427;-88
2023/12/12 08:31:05;;;;;;;157.90;52.87;;;;;;;-141.97;100.00;46147.03;4975014;28;20251;-88
2023/12/12 08:33:33;;;;;;;551.13;167.23;;;;;;;-141.97;100.00;46210.41;4974179;28;20160;-88
2023/12/12 08:35:59;;;;;;;182.20;57.33;;;;;;;-141.97;100.00;46214.25;4956666;28;20168;-88
2023/12/12 08:38:25;;;;;;;239.00;72.87;;;;;;;-141.97;100.00;46189.28;4973337;28;20487;-86
2023/12/12 08:40:51;;;;;;;123.93;40.20;;;;;;;-141.97;100.00;46097.06;4957225;28;20939;-87
2023/12/12 08:43:16;;;;;;;132.37;42.20;;;;;;;-141.97;100.00;46120.13;4973646;28;20161;-89
2023/12/12 08:45:44;;;;;;;124.43;41.57;;;;;;;-141.97;100.00;46262.28;4956374;28;20246;-89
2023/12/12 08:48:09;;;;;;;116.77;36.60;;;;;;;-141.97;100.00;46062.47;4974007;28;20164;-88
2023/12/12 08:50:35;;;;;;;104.70;37.30;;;;;;;-141.97;100.00;46195.06;4975942;28;20428;-90
2023/12/12 08:53:02;;;;;;;123.47;39.60;;;;;;;-141.97;100.00;46062.47;4975825;28;20171;-88
2023/12/12 08:55:27;;;;;;;122.20;40.50;;;;;;;-141.97;100.00;46141.25;4959903;28;20415;-90
2023/12/12 08:57:53;;;;;;;158.27;52.07;;;;;;;-141.97;100.00;46010.63;4975975;28;20412;-88
2023/12/12 09:00:18;;;;;;;124.40;39.80;;;;;;;-141.97;100.00;46077.84;4972778;28;20172;-88
2023/12/12 09:02:44;;;;;;;159.60;56.33;;;;;;;-141.97;100.00;46650.44;4975148;28;20182;-88
2023/12/12 09:05:10;;;;;;;126.63;40.73;;;;;;;-141.97;100.00;46083.63;4994763;28;20202;-89
2023/12/12 09:07:35;;;;;;;371.20;156.23;;;;;;;-141.97;100.00;46062.47;4994641;28;20410;-89
2023/12/12 09:10:03;;;;;;;138.73;47.23;;;;;;;-141.97;100.00;45983.72;5012188;28;20166;-88
2023/12/12 09:12:28;;;;;;;132.97;50.97;;;;;;;-141.97;100.00;46047.13;4994965;28;20205;-88
2023/12/12 09:14:54;;;;;;;112.70;40.90;;;;;;;-141.97;100.00;46008.69;5012621;28;20285;-89
2023/12/12 09:17:20;;;;;;;96.83;35.23;;;;;;;-141.97;100.00;46323.78;5012715;28;20166;-86
2023/12/12 09:19:45;;;;;;;105.30;37.60;;;;;;;-141.97;100.00;46527.44;4996039;28;20190;-88
2023/12/12 09:22:11;;;;;;;100.53;37.43;;;;;;;-141.97;100.00;46129.72;4996697;28;20237;-87
2023/12/12 09:24:36;;;;;;;105.23;39.50;;;;;;;-141.97;100.00;45954.91;4994743;28;20210;-88
2023/12/12 09:27:02;;;;;;;108.87;39.07;;;;;;;-141.97;100.00;46041.34;5012596;28;20174;-87
2023/12/12 09:29:27;;;;;;;102.53;38.73;;;;;;;-141.97;100.00;46112.44;5011906;28;20628;-86
2023/12/12 09:31:52;;;;;;;103.30;39.40;;;;;;;-141.97;100.00;46047.13;4994800;28;20695;-87
2023/12/12 09:34:18;;;;;;;98.87;39.13;;;;;;;-141.97;100.00;46116.28;5011829;28;20169;-88
2023/12/12 09:36:43;;;;;;;105.33;41.33;;;;;;;-141.97;100.00;46062.47;5012332;28;20175;-87
2023/12/12 09:39:10;;;;;;;107.13;42.07;;;;;;;-141.97;100.00;46475.56;5011919;28;20167;-86
2023/12/12 09:41:39;;;;;;;114.07;43.60;;;;;;;-141.97;100.00;46120.13;4993967;28;20163;-86
2023/12/12 09:44:04;;;;;;;120.80;43.30;;;;;;;-141.97;98.20;46348.75;4994169;28;20254;-86
2023/12/12 09:46:31;;;;;;;116.03;46.27;;;;;;;-141.97;99.35;46027.91;4986321;28;20321;-85
2023/12/12 09:49:06;;;;;;;115.67;46.73;;;;;;;-141.97;98.51;46100.91;4992647;28;20199;-86
2023/12/12 09:51:32;;;;;;;121.47;47.00;;;;;;;-141.97;96.92;45922.25;4974721;28;20175;-87
2023/12/12 09:53:57;;;;;;;132.63;51.73;;;;;;;-141.97;95.72;46504.38;5004846;28;20237;-86
2023/12/12 09:56:24;;;;;;;124.93;48.87;;;;;;;-141.97;94.95;45954.91;5012254;28;20163;-85
2023/12/12 09:58:50;;;;;;;116.93;47.87;;;;;;;-141.97;93.88;45845.41;4985491;28;20207;-85
2023/12/12 10:01:19;;;;;;;115.63;47.87;;;;;;;-141.97;92.25;46252.69;4991961;28;20183;-87
2023/12/12 10:03:45;;;;;;;120.43;48.93;;;;;;;-141.97;91.10;46047.13;4974633;28;20183;-85
2023/12/12 10:06:12;;;;;;;113.17;46.33;;;;;;;-141.97;90.15;46346.84;4974417;28;20210;-84
2023/12/12 10:08:39;;;;;;;123.50;49.37;;;;;;;-141.97;89.72;45812.72;4991369;28;20644;-86
2023/12/12 10:11:09;;;;;;;115.50;47.90;;;;;;;-141.97;89.80;45895.34;4991616;28;20171;-84
2023/12/12 10:13:53;;;;;;;122.50;48.63;;;;;;;-141.97;89.67;46024.06;4974005;28;20539;-85
2023/12/12 10:16:19;;;;;;;125.87;50.47;;;;;;;-141.97;89.00;46058.63;4992069;28;20152;-86
2023/12/12 10:18:46;;;;;;;127.63;49.33;;;;;;;-141.97;88.60;45931.84;4975849;28;20185;-85
2023/12/12 10:21:20;;;;;;;192.20;71.20;;;;;;;-141.97;88.21;46462.13;4991761;28;20166;-84
2023/12/12 10:23:47;;;;;;;145.80;55.17;;;;;;;-141.97;87.73;45858.84;4994348;28;20237;-84
2023/12/12 10:26:14;;;;;;;112.77;48.77;;;;;;;-141.97;68.82;46294.97;4999726;28;20265;-87
2023/12/12 10:28:40;;;;;;;118.93;46.50;;;;;;;-141.97;59.99;45920.31;5013678;28;21017;-85
2023/12/12 10:31:07;;;;;;;138.83;62.90;;;;;;;-141.97;61.18;45926.06;5015458;28;20178;-89
2023/12/12 10:33:34;;;;;;;102.97;44.63;;;;;;;-141.97;59.83;45808.91;5010470;28;20164;-87
2023/12/12 10:36:05;;;;;;;112.47;48.53;;;;;;;-141.97;58.54;46208.50;5004810;28;20175;-86
2023/12/12 10:38:30;;;;;;;105.70;43.93;;;;;;;-141.97;58.78;45826.19;4995960;28;20175;-87
2023/12/12 10:41:17;;;;;;;119.57;46.37;;;;;;;-141.97;59.36;45893.41;4995512;28;20178;-87